Decoded Metar for CYLW (KELOWNA in BC, CANADA) (IATA:YLW) | Meteo·Mobile Aviation Weather
aviador You're here:

CYLW Decoded Metar

KELOWNA in BC, CANADA
Report Time2019-01-19 05:00:00
UTC Time2019-01-19 05:58:30
Flight Rules vfr VFR
Wind130° at 05 kt
W.Decomp.*RWY 16: 3.3 kt HW 3.7 kt LCW
W.Rank130° ranks 18
Current wind is below 130° avg. (5.6)
Visibility9999 m
Phenomena:N/A
Clouds:Scattered 041 Hf
Broken 160 Hf
Ceiling16,000 ft
Temp01°C (ISA -11)
Dew Point01°C (100% RH)
AAT-2.6°C
QNH1016 hPa
Density Alt43 ft
Elevation1,411 ft
Report Wrong Elevation
Raw Report
CYLW 190500Z AUTO 13005KT 9SM SCT041 BKN160 01/01 A3000 RMK
SLP180=

Extra information for CYLW:More info

Metar Taf Metar & Taf Last 4 Metars F.Rules Stats Wind Profile Meteogram Temp Stats Airport Information Weather charts Add Link Nearby VenuesMetar ALERT Operation Metar Decoded Social comments